Time;durP1;ratioP1;P1;durP2;ratioP2;P2;SDS_P1;SDS_P2;PMS_P1;PMS_P2;Temp;Humidity;BMP_temperature;BMP_pressure;BME280_temperature;BME280_humidity;BME280_pressure;Samples;Min_cycle;Max_cycle;Signal;HPM_P1;HPM_P2
2022/06/19 00:01:32;;;;;;;;;22.50;21.25;;;;;31.83;36.74;100206.47;5038744;28;46341;-73
2022/06/19 00:04:15;;;;;;;;;20.00;18.00;;;;;31.83;37.38;100225.44;5038552;28;45372;-72
2022/06/19 00:06:42;;;;;;;;;17.25;16.25;;;;;31.82;37.85;100229.13;5038406;27;45596;-73
2022/06/19 00:09:08;;;;;;;;;15.25;14.50;;;;;31.62;38.51;100185.03;5039108;28;45495;-72
2022/06/19 00:11:39;;;;;;;;;15.25;13.50;;;;;31.72;39.03;100218.31;5040717;28;45420;-70
2022/06/19 00:14:08;;;;;;;;;14.00;13.75;;;;;31.55;39.21;100211.81;5038249;28;45492;-73
2022/06/19 00:16:35;;;;;;;;;15.50;14.25;;;;;31.63;39.67;100233.59;5040843;28;45511;-74
2022/06/19 00:19:01;;;;;;;;;15.00;13.25;;;;;31.57;39.97;100266.66;5037543;28;45401;-73
2022/06/19 00:21:27;;;;;;;;;13.75;12.75;;;;;31.45;40.48;100282.19;5039030;28;46105;-74
2022/06/19 00:23:53;;;;;;;;;14.50;14.00;;;;;31.44;40.01;100285.91;5039920;28;45496;-72
2022/06/19 00:26:19;;;;;;;;;15.50;15.00;;;;;31.35;40.19;100275.06;5049815;28;45480;-72
2022/06/19 00:28:47;;;;;;;;;14.00;14.00;;;;;31.27;40.47;100282.03;5057906;28;45457;-72
2022/06/19 00:31:14;;;;;;;;;13.75;13.75;;;;;31.06;40.72;100265.91;5058533;28;46093;-71
2022/06/19 00:33:41;;;;;;;;;16.25;13.25;;;;;31.09;40.12;100274.75;5055468;28;45457;-71
2022/06/19 00:36:10;;;;;;;;;16.00;14.75;;;;;30.93;40.66;100278.00;5049349;27;45389;-72
2022/06/19 00:38:43;;;;;;;;;15.00;12.00;;;;;30.89;40.27;100272.00;5027576;28;45335;-72
2022/06/19 00:41:12;;;;;;;;;12.00;12.00;;;;;30.77;39.83;100268.53;5032920;28;46059;-71
2022/06/19 00:44:01;;;;;;;;;13.00;11.50;;;;;30.65;40.36;100250.72;5028197;28;45473;-72
2022/06/19 00:46:48;;;;;;;;;13.00;11.75;;;;;30.55;40.33;100274.16;5029835;28;45260;-72
2022/06/19 00:49:28;;;;;;;;;15.75;12.00;;;;;30.36;40.15;100261.44;5026479;28;45285;-73
2022/06/19 00:52:04;;;;;;;;;11.75;10.25;;;;;30.22;40.30;100273.41;5034102;28;46050;-72
2022/06/19 00:54:40;;;;;;;;;10.25;10.25;;;;;29.97;39.83;100272.88;5031582;28;45491;-71
2022/06/19 00:57:08;;;;;;;;;12.50;9.25;;;;;30.00;39.68;100307.72;5038169;28;45399;-72
2022/06/19 00:59:49;;;;;;;;;11.25;10.50;;;;;29.98;40.00;100323.19;5043065;28;45341;-72
2022/06/19 01:02:15;;;;;;;;;9.75;9.75;;;;;29.91;39.54;100316.59;5023919;28;45754;-73
2022/06/19 01:04:48;;;;;;;;;7.50;7.50;;;;;29.84;39.34;100307.31;5028918;28;45457;-72
2022/06/19 01:07:14;;;;;;;;;9.00;9.00;;;;;29.77;39.19;100333.97;5042479;28;45554;-72
2022/06/19 01:09:40;;;;;;;;;9.50;9.50;;;;;29.65;39.00;100318.78;5046652;28;45603;-72
2022/06/19 01:12:08;;;;;;;;;8.25;8.25;;;;;29.57;38.63;100324.00;5037807;28;45433;-71
2022/06/19 01:14:41;;;;;;;;;8.00;6.50;;;;;29.47;38.96;100325.72;5038156;28;45428;-72
2022/06/19 01:17:13;;;;;;;;;7.50;7.00;;;;;29.23;38.74;100309.75;5038066;28;45514;-72
2022/06/19 01:19:41;;;;;;;;;9.75;7.25;;;;;29.13;38.90;100324.00;5037790;28;45547;-72
2022/06/19 01:22:15;;;;;;;;;7.25;6.25;;;;;29.07;38.96;100340.69;5037715;28;46080;-72
2022/06/19 01:25:03;;;;;;;;;8.00;8.00;;;;;28.77;39.05;100308.13;5036538;28;45351;-73
2022/06/19 01:30:18;;;;;;;;;11.00;8.00;;;;;28.48;39.46;100344.50;5037571;28;45385;-72
2022/06/19 01:32:48;;;;;;;;;8.25;8.25;;;;;28.37;39.36;100338.22;5035630;28;45442;-72
2022/06/19 01:35:16;;;;;;;;;8.25;8.25;;;;;28.26;39.66;100322.91;5031881;28;45434;-73
2022/06/19 01:37:44;;;;;;;;;9.25;9.00;;;;;28.14;39.47;100330.09;5050736;27;45777;-73
2022/06/19 01:40:15;;;;;;;;;10.00;8.25;;;;;27.99;40.12;100334.84;5013187;28;45572;-73
2022/06/19 01:42:40;;;;;;;;;10.75;10.00;;;;;27.85;39.69;100340.44;5032488;28;45688;-72
2022/06/19 01:45:07;;;;;;;;;9.67;9.00;;;;;27.79;39.87;100363.28;5035498;28;45482;-73
2022/06/19 01:47:33;;;;;;;;;10.00;9.33;;;;;27.65;39.82;100337.41;5037503;28;45410;-72
2022/06/19 01:50:00;;;;;;;;;12.67;11.00;;;;;27.64;40.04;100364.41;5038327;28;45678;-72
2022/06/19 01:52:29;;;;;;;;;11.33;9.67;;;;;27.53;40.00;100348.25;5038040;28;46216;-72
2022/06/19 01:55:05;;;;;;;;;11.00;8.67;;;;;27.42;40.19;100328.38;5023816;28;45520;-72
2022/06/19 01:57:34;;;;;;;;;6.67;6.33;;;;;27.38;39.82;100317.97;5036850;28;46680;-73
2022/06/19 02:00:01;;;;;;;;;10.00;8.00;;;;;27.25;40.54;100329.63;5037475;28;45453;-72
2022/06/19 02:02:29;;;;;;;;;9.00;7.50;;;;;27.15;40.13;100320.53;5037104;28;46277;-71
2022/06/19 02:04:55;;;;;;;;;10.00;9.33;;;;;27.06;40.11;100340.84;5037467;28;45388;-74
2022/06/19 02:07:26;;;;;;;;;13.00;9.00;;;;;27.07;39.95;100358.72;5040872;28;45469;-71
2022/06/19 02:09:54;;;;;;;;;9.67;7.67;;;;;27.01;39.68;100369.06;5041285;28;45489;-72
2022/06/19 02:12:22;;;;;;;;;9.00;9.00;;;;;26.97;39.81;100378.31;5026971;28;46038;-71
2022/06/19 02:14:49;;;;;;;;;8.00;8.00;;;;;26.89;40.14;100383.38;5040606;28;45397;-72
2022/06/19 02:17:21;;;;;;;;;8.33;7.00;;;;;26.93;39.85;100415.28;5040794;28;46563;-72
2022/06/19 02:19:47;;;;;;;;;10.50;5.50;;;;;26.89;39.97;100440.66;5040815;28;45503;-74
2022/06/19 02:22:15;;;;;;;;;11.33;8.33;;;;;26.89;39.96;100450.56;5039996;28;46036;-73
2022/06/19 02:24:41;;;;;;;;;7.67;7.67;;;;;26.81;39.60;100421.53;5040715;28;45404;-72
2022/06/19 02:27:11;;;;;;;;;12.00;7.00;;;;;26.83;40.09;100412.38;5040507;28;46907;-72
2022/06/19 02:29:39;;;;;;;;;11.67;9.33;;;;;26.79;39.74;100413.59;5039636;27;45732;-73
2022/06/19 02:32:07;;;;;;;;;11.00;7.00;;;;;26.77;40.11;100425.41;5040263;28;45585;-72
2022/06/19 02:34:40;;;;;;;;;12.00;6.00;;;;;26.77;40.14;100438.84;5039283;27;45376;-72
2022/06/19 02:37:14;;;;;;;;;11.00;7.33;;;;;26.74;40.32;100417.56;5039107;28;45333;-73
2022/06/19 02:40:06;;;;;;;;;10.67;8.00;;;;;26.47;39.76;100372.84;5039366;27;45453;-73
2022/06/19 02:42:34;;;;;;;;;6.00;6.00;;;;;26.63;40.00;100391.47;5040321;28;45964;-72
2022/06/19 02:45:05;;;;;;;;;9.00;7.33;;;;;26.71;40.26;100410.56;5040643;28;45409;-72
2022/06/19 02:47:34;;;;;;;;;6.67;6.67;;;;;26.62;40.37;100405.84;5040857;28;45441;-72
2022/06/19 02:50:00;;;;;;;;;7.67;7.67;;;;;26.53;40.28;100428.81;5040647;28;45325;-73
2022/06/19 02:52:26;;;;;;;;;8.00;6.00;;;;;26.44;40.53;100555.66;5021937;27;45349;-73
2022/06/19 02:54:52;;;;;;;;;8.00;7.00;;;;;26.55;40.32;100681.19;5024178;28;46763;-73
2022/06/19 02:57:18;;;;;;;;;9.00;7.00;;;;;26.50;40.43;100519.47;5030542;28;45468;-73
2022/06/19 02:59:44;;;;;;;;;12.33;8.00;;;;;26.41;40.60;100550.47;5031614;28;45376;-74
2022/06/19 03:02:12;;;;;;;;;8.67;6.33;;;;;26.29;40.37;100599.63;5033465;28;47682;-72
2022/06/19 03:05:06;;;;;;;;;6.67;6.67;;;;;26.36;40.27;100609.00;5040312;28;45808;-72
2022/06/19 03:07:31;;;;;;;;;8.00;7.00;;;;;26.38;40.33;100620.50;5037156;28;45247;-73
2022/06/19 03:09:58;;;;;;;;;7.33;7.00;;;;;26.37;40.38;100619.66;5029174;28;45644;-71
2022/06/19 03:12:24;;;;;;;;;8.67;6.33;;;;;26.41;40.23;100593.44;5039814;27;46085;-71
2022/06/19 03:14:50;;;;;;;;;6.67;6.67;;;;;26.37;40.33;100570.47;5039701;28;45570;-73
2022/06/19 03:17:21;;;;;;;;;7.67;7.00;;;;;26.35;40.62;100601.94;5039282;28;45449;-72
2022/06/19 03:19:47;;;;;;;;;14.33;10.33;;;;;26.22;40.45;100532.94;5039780;28;45396;-73
2022/06/19 03:22:14;;;;;;;;;8.67;8.67;;;;;25.83;40.60;100495.28;5039677;28;45426;-71
2022/06/19 03:24:40;;;;;;;;;8.67;7.67;;;;;26.10;40.70;100573.13;5036404;28;45492;-75
2022/06/19 03:27:07;;;;;;;;;9.67;8.67;;;;;26.12;40.70;100590.88;5029551;28;45357;-72
2022/06/19 03:29:33;;;;;;;;;12.33;9.33;;;;;25.99;40.69;100545.19;5039751;28;45530;-72
2022/06/19 03:31:59;;;;;;;;;8.00;8.00;;;;;26.12;40.81;100542.56;5039414;28;46203;-72
2022/06/19 03:34:25;;;;;;;;;8.67;6.67;;;;;26.20;40.99;100566.22;5039273;28;45440;-73
2022/06/19 03:36:51;;;;;;;;;11.00;9.00;;;;;26.06;41.08;100532.25;5039112;28;45465;-72
2022/06/19 03:39:17;;;;;;;;;7.67;7.00;;;;;26.03;40.84;100553.91;5039336;28;45459;-72
2022/06/19 03:41:43;;;;;;;;;10.33;8.00;;;;;25.94;41.01;100554.53;5039108;28;45460;-73
2022/06/19 03:44:10;;;;;;;;;10.67;7.00;;;;;25.99;40.81;100580.06;5039542;28;45531;-73
2022/06/19 03:46:36;;;;;;;;;9.00;7.33;;;;;26.02;40.75;100595.13;5039650;28;45354;-71
2022/06/19 03:49:03;;;;;;;;;13.67;8.33;;;;;26.02;40.77;100593.28;5039262;28;45429;-72
2022/06/19 03:51:29;;;;;;;;;7.33;6.00;;;;;25.98;40.87;100598.94;5038621;28;46301;-72
2022/06/19 03:53:56;;;;;;;;;8.00;8.00;;;;;25.96;41.04;100576.72;5038287;28;45428;-73
2022/06/19 03:56:28;;;;;;;;;14.67;8.00;;;;;25.91;41.13;100565.44;5054372;27;45475;-72
2022/06/19 03:58:54;;;;;;;;;12.33;10.00;;;;;25.79;40.96;100545.59;5034669;28;45586;-73
2022/06/19 04:01:32;;;;;;;;;14.67;11.00;;;;;25.77;40.51;100567.16;5027984;28;46696;-73
2022/06/19 04:03:59;;;;;;;;;9.00;8.00;;;;;25.76;40.75;100616.41;5038905;28;45512;-72
2022/06/19 04:06:29;;;;;;;;;10.67;9.00;;;;;25.67;40.63;100645.63;5049734;28;46772;-71
2022/06/19 04:08:56;;;;;;;;;10.67;7.67;;;;;25.44;40.88;100712.28;5042148;28;45563;-71
2022/06/19 04:11:23;;;;;;;;;10.00;9.00;;;;;25.51;41.38;100761.03;5038524;28;45590;-71
2022/06/19 04:13:52;;;;;;;;;11.33;9.00;;;;;25.56;41.72;100628.38;5038331;28;45282;-72
2022/06/19 04:16:21;;;;;;;;;9.67;8.67;;;;;25.59;42.41;100506.66;5038072;28;45409;-73
2022/06/19 04:18:49;;;;;;;;;15.67;10.33;;;;;25.55;42.66;100516.69;5037054;28;45542;-71
2022/06/19 04:21:17;;;;;;;;;13.00;10.00;;;;;25.43;44.26;100511.28;5038141;28;45626;-72
2022/06/19 04:23:42;;;;;;;;;12.00;10.67;;;;;25.09;45.83;100481.22;5037147;28;45251;-72
2022/06/19 04:26:09;;;;;;;;;14.33;11.00;;;;;24.84;45.89;100455.94;5038956;28;45248;-74
2022/06/19 04:28:35;;;;;;;;;11.00;9.67;;;;;24.86;45.71;100483.50;5039177;28;45310;-74
2022/06/19 04:31:01;;;;;;;;;12.67;9.00;;;;;24.89;45.20;100488.69;5024994;28;46320;-73
2022/06/19 04:33:26;;;;;;;;;12.00;9.33;;;;;24.84;46.32;100492.56;5050764;28;45389;-75
2022/06/19 04:35:52;;;;;;;;;10.00;8.67;;;;;24.87;45.33;100503.13;5055537;28;45304;-75
2022/06/19 04:38:17;;;;;;;;;12.33;11.33;;;;;24.71;46.19;100513.91;5052513;27;45575;-74
2022/06/19 04:40:43;;;;;;;;;13.33;11.67;;;;;24.39;47.00;100516.63;5054593;27;46198;-74
2022/06/19 04:43:10;;;;;;;;;10.33;9.00;;;;;24.36;46.66;100498.09;5055407;27;45467;-73
2022/06/19 04:45:36;;;;;;;;;8.33;7.33;;;;;24.40;46.01;100485.41;5053005;28;45331;-73
2022/06/19 04:48:01;;;;;;;;;11.00;9.00;;;;;24.44;45.75;100514.56;5055544;28;45456;-73
2022/06/19 04:50:27;;;;;;;;;10.33;9.00;;;;;24.33;45.74;100500.97;5049678;28;46543;-71
2022/06/19 04:52:54;;;;;;;;;10.00;8.33;;;;;24.46;45.52;100496.63;5031273;28;45686;-70
2022/06/19 04:55:19;;;;;;;;;9.33;7.67;;;;;24.48;45.75;100517.94;5034919;28;45314;-71
2022/06/19 04:57:46;;;;;;;;;7.00;7.00;;;;;24.50;45.43;100498.16;5026947;28;45412;-72
2022/06/19 05:00:15;;;;;;;;;8.33;7.33;;;;;24.46;45.88;100491.25;5029354;28;45413;-72
2022/06/19 05:02:41;;;;;;;;;9.00;7.00;;;;;24.54;45.51;100497.03;5038329;28;44825;-71
2022/06/19 05:05:08;;;;;;;;;6.00;6.00;;;;;24.48;46.43;100513.44;5037860;28;45365;-70
2022/06/19 05:07:34;;;;;;;;;9.67;7.00;;;;;24.36;45.42;100524.84;5038062;28;45484;-72
2022/06/19 05:10:00;;;;;;;;;10.00;9.33;;;;;24.26;46.70;100535.25;5037264;28;45619;-70
2022/06/19 05:12:27;;;;;;;;;7.33;7.33;;;;;23.97;46.20;100573.53;5037231;28;45532;-72
2022/06/19 05:14:55;;;;;;;;;10.00;8.00;;;;;23.69;47.97;100610.63;5037848;28;45427;-71
2022/06/19 05:17:21;;;;;;;;;7.33;6.00;;;;;23.68;47.47;100534.06;5038030;28;45189;-71
2022/06/19 05:19:50;;;;;;;;;8.67;7.00;;;;;23.61;46.49;100411.50;5037630;28;45427;-71
2022/06/19 05:22:15;;;;;;;;;5.67;4.00;;;;;23.78;45.91;100413.25;5037698;28;45326;-71
2022/06/19 05:24:41;;;;;;;;;6.00;6.00;;;;;23.73;46.27;100377.84;5036327;28;45642;-71
2022/06/19 05:27:12;;;;;;;;;5.67;4.33;;;;;24.00;46.37;100362.03;5038181;28;45168;-72
2022/06/19 05:29:38;;;;;;;;;5.00;5.00;;;;;23.75;46.06;100250.28;5037904;28;46614;-73
2022/06/19 05:32:05;;;;;;;;;5.33;5.33;;;;;23.81;45.98;100276.69;5037974;28;45412;-73
2022/06/19 05:34:31;;;;;;;;;8.00;6.00;;;;;24.10;47.53;100411.34;5037485;28;45468;-71
2022/06/19 05:36:57;;;;;;;;;8.00;6.00;;;;;23.80;46.98;100435.38;5037777;28;45356;-73
2022/06/19 05:39:23;;;;;;;;;7.00;5.33;;;;;23.62;47.18;100413.22;5037193;28;45446;-71
2022/06/19 05:41:48;;;;;;;;;7.00;5.00;;;;;23.43;47.54;100384.03;5037395;28;45383;-71
2022/06/19 05:44:14;;;;;;;;;7.33;5.00;;;;;23.71;47.32;100442.97;5036684;28;45370;-72
2022/06/19 05:46:41;;;;;;;;;7.00;6.00;;;;;23.81;46.59;100447.81;5038044;28;45499;-71
2022/06/19 05:49:08;;;;;;;;;7.00;6.00;;;;;23.84;46.36;100440.47;5037080;27;46113;-72
2022/06/19 05:51:34;;;;;;;;;7.33;5.00;;;;;24.00;46.44;100459.16;5037300;28;45500;-72
2022/06/19 05:54:00;;;;;;;;;5.00;4.00;;;;;24.04;45.97;100439.31;5037874;28;45397;-73
2022/06/19 05:56:27;;;;;;;;;6.33;4.67;;;;;24.16;46.02;100402.09;5038040;28;45431;-75
2022/06/19 05:58:53;;;;;;;;;6.67;5.00;;;;;24.19;45.46;100370.66;5034056;27;45541;-74
2022/06/19 06:01:20;;;;;;;;;5.00;5.00;;;;;24.18;45.53;100368.94;5028323;28;45455;-73
2022/06/19 06:03:46;;;;;;;;;5.00;3.00;;;;;24.19;45.61;100359.94;5038454;28;45250;-72
2022/06/19 06:06:18;;;;;;;;;6.33;6.33;;;;;24.16;46.90;100330.72;5036187;27;45452;-74
2022/06/19 22:08:54;;;;;;;;;27.00;26.00;;;;;22.41;55.67;100747.09;5000970;27;45828;-71
2022/06/19 22:14:15;;;;;;;;;28.00;26.00;;;;;22.85;54.92;100794.84;5029331;27;45499;-69
2022/06/19 22:16:41;;;;;;;;;30.00;29.67;;;;;22.90;55.84;100804.44;5013356;27;45692;-70
2022/06/19 22:19:07;;;;;;;;;30.33;26.33;;;;;22.86;55.67;100812.59;5027813;27;45406;-72
2022/06/19 22:21:32;;;;;;;;;24.67;24.00;;;;;23.00;54.71;100821.78;5040458;27;45388;-73
2022/06/19 22:23:59;;;;;;;;;25.33;24.00;;;;;23.23;54.10;100844.69;5027844;27;45451;-73
2022/06/19 22:26:26;;;;;;;;;22.67;22.67;;;;;23.43;53.65;100833.03;5031753;27;45431;-71
2022/06/19 22:28:57;;;;;;;;;24.00;24.00;;;;;23.42;53.16;100791.19;5014946;27;45299;-72
2022/06/19 22:31:25;;;;;;;;;33.67;31.00;;;;;23.31;53.22;100746.31;5076072;27;45464;-72
2022/06/19 22:33:51;;;;;;;;;28.00;27.67;;;;;23.66;52.92;100787.28;5058055;27;45395;-72
2022/06/19 22:36:24;;;;;;;;;25.67;23.67;;;;;23.37;52.57;100734.44;5064822;27;45930;-72
2022/06/19 22:39:13;;;;;;;;;24.67;22.00;;;;;23.83;52.32;100815.00;4998007;27;46789;-73
2022/06/19 22:41:39;;;;;;;;;26.00;22.00;;;;;23.78;51.94;100811.72;5074911;27;45349;-74
2022/06/19 22:44:26;;;;;;;;;24.00;23.67;;;;;23.82;52.38;100776.66;5052720;27;45384;-74
2022/06/19 22:46:57;;;;;;;;;23.00;21.00;;;;;23.88;52.38;100762.13;4987060;27;45430;-74
2022/06/19 22:49:23;;;;;;;;;25.33;24.33;;;;;23.83;52.47;100738.28;5025877;27;48217;-75
2022/06/19 22:51:51;;;;;;;;;23.00;22.00;;;;;23.81;52.78;100710.75;4984373;27;45428;-72
2022/06/19 22:54:19;;;;;;;;;20.67;20.00;;;;;23.82;52.87;100672.38;5002735;27;45565;-73
2022/06/19 22:56:48;;;;;;;;;27.33;24.67;;;;;23.56;53.56;100616.72;4991093;27;45382;-72
2022/06/19 23:02:13;;;;;;;;;24.33;24.33;;;;;23.05;54.41;100609.59;5052078;27;46552;-75
2022/06/19 23:04:39;;;;;;;;;24.67;23.67;;;;;22.41;54.78;100556.78;4989741;27;45445;-74
2022/06/19 23:07:05;;;;;;;;;26.67;23.67;;;;;22.44;54.58;100569.97;5059452;27;45447;-72
2022/06/19 23:09:33;;;;;;;;;23.33;21.33;;;;;22.33;54.95;100545.63;5016687;27;46396;-73
2022/06/19 23:11:59;;;;;;;;;24.33;20.33;;;;;22.71;55.23;100589.09;5094049;27;45292;-74
2022/06/19 23:14:25;;;;;;;;;24.67;22.00;;;;;23.03;55.04;100635.50;5058840;27;45832;-72
2022/06/19 23:17:04;;;;;;;;;24.00;23.00;;;;;22.89;54.87;100599.75;5025945;27;45508;-72
2022/06/19 23:19:36;;;;;;;;;26.67;23.67;;;;;23.05;55.45;100622.09;5033733;27;45970;-74
2022/06/19 23:22:02;;;;;;;;;22.00;20.00;;;;;22.98;54.85;100585.94;5050512;27;45381;-75
2022/06/19 23:24:48;;;;;;;;;23.33;19.67;;;;;22.96;54.75;100587.81;5002429;27;45456;-72
2022/06/19 23:27:26;;;;;;;;;25.33;24.67;;;;;22.64;55.18;100550.28;5005963;27;45538;-72
2022/06/19 23:29:52;;;;;;;;;21.67;20.00;;;;;23.08;55.20;100609.44;5009396;27;46098;-73
2022/06/19 23:32:18;;;;;;;;;26.50;26.50;;;;;22.86;55.57;100596.28;5026334;27;45350;-74
2022/06/19 23:34:44;;;;;;;;;28.00;27.00;;;;;22.21;56.69;100510.63;5002742;27;45287;-73
2022/06/19 23:37:24;;;;;;;;;28.67;23.00;;;;;22.28;56.68;100521.88;4994207;27;45442;-74
2022/06/19 23:39:51;;;;;;;;;22.33;21.67;;;;;22.48;56.17;100590.22;4991763;27;47161;-73
2022/06/19 23:42:26;;;;;;;;;31.00;29.33;;;;;22.17;56.36;100591.72;5024803;27;45389;-74
2022/06/19 23:45:19;;;;;;;;;24.00;22.67;;;;;22.34;56.14;100638.94;4987890;27;45418;-72
2022/06/19 23:47:47;;;;;;;;;31.33;31.00;;;;;21.91;56.17;100608.09;4997982;27;45504;-73
2022/06/19 23:50:21;;;;;;;;;29.33;26.00;;;;;21.98;56.37;100674.41;4995178;27;45418;-76
2022/06/19 23:52:47;;;;;;;;;28.33;25.00;;;;;22.01;56.79;100716.06;4973199;28;45712;-73
2022/06/19 23:55:13;;;;;;;;;37.67;33.33;;;;;21.85;57.18;100718.53;4974617;27;45412;-77
2022/06/19 23:57:42;;;;;;;;;32.33;29.67;;;;;21.68;57.63;100731.78;4993040;27;45431;-73
